Time;durP1;ratioP1;P1;durP2;ratioP2;P2;SDS_P1;SDS_P2;PMS_P1;PMS_P2;Temp;Humidity;BMP_temperature;BMP_pressure;BME280_temperature;BME280_humidity;BME280_pressure;Samples;Min_cycle;Max_cycle;Signal;HPM_P1;HPM_P2
2021/05/18 00:00:39;;;;;;;;;;;22.00;43.40;;;;;;461162;258;1287;-46
2021/05/18 00:02:40;;;;;;;;;;;21.80;43.60;;;;;;461340;258;1113;-46
2021/05/18 00:04:42;;;;;;;;;;;21.20;44.70;;;;;;461234;258;1098;-46
2021/05/18 00:06:43;;;;;;;;;;;20.70;45.90;;;;;;461113;258;1205;-46
2021/05/18 00:13:40;;;;;;;;;;;19.80;48.20;;;;;;449357;265;1296;-46
2021/05/18 00:15:41;;;;;;;;;;;19.60;48.80;;;;;;454611;257;1223;-46
2021/05/18 00:17:42;;;;;;;;;;;19.50;49.10;;;;;;460036;258;1116;-46
2021/05/18 00:19:43;;;;;;;;;;;19.40;49.30;;;;;;462016;257;1063;-46
2021/05/18 00:21:45;;;;;;;;;;;19.30;49.40;;;;;;461926;256;1084;-46
2021/05/18 00:23:46;;;;;;;;;;;19.30;49.70;;;;;;461938;256;1120;-46
2021/05/18 00:25:48;;;;;;;;;;;19.20;49.80;;;;;;460953;256;1211;-46
2021/05/18 00:27:49;;;;;;;;;;;19.20;49.80;;;;;;461788;257;2196;-46
2021/05/18 00:29:50;;;;;;;;;;;19.10;49.80;;;;;;462024;256;1090;-46
2021/05/18 00:31:51;;;;;;;;;;;19.10;50.00;;;;;;462046;256;1836;-46
2021/05/18 00:33:53;;;;;;;;;;;19.10;50.00;;;;;;460597;259;1036;-46
2021/05/18 00:35:54;;;;;;;;;;;19.00;50.10;;;;;;463102;257;1186;-46
2021/05/18 00:37:55;;;;;;;;;;;19.00;50.20;;;;;;463189;256;1318;-46
2021/05/18 00:39:57;;;;;;;;;;;19.00;50.30;;;;;;463222;256;1144;-46
2021/05/18 00:41:58;;;;;;;;;;;19.00;50.40;;;;;;460525;257;1392;-46
2021/05/18 00:43:59;;;;;;;;;;;18.90;50.50;;;;;;463298;257;1091;-46
2021/05/18 00:46:00;;;;;;;;;;;18.80;50.50;;;;;;463049;255;1281;-46
2021/05/18 00:48:02;;;;;;;;;;;18.80;50.70;;;;;;463110;255;2191;-46
2021/05/18 00:50:03;;;;;;;;;;;18.80;50.60;;;;;;460830;257;1190;-46
2021/05/18 00:52:05;;;;;;;;;;;18.80;50.70;;;;;;463076;257;1274;-46
2021/05/18 00:54:08;;;;;;;;;;;18.70;50.80;;;;;;460529;257;1413;-46
2021/05/18 00:56:18;;;;;;;;;;;18.70;50.90;;;;;;463196;257;2096;-46
2021/05/18 00:58:26;;;;;;;;;;;18.60;50.90;;;;;;459881;258;1934;-46
2021/05/18 01:00:28;;;;;;;;;;;18.60;51.00;;;;;;460910;258;1351;-46
2021/05/18 01:02:29;;;;;;;;;;;18.60;51.00;;;;;;463296;257;1158;-46
2021/05/18 01:04:30;;;;;;;;;;;18.60;51.10;;;;;;463602;255;1079;-46
2021/05/18 01:06:31;;;;;;;;;;;18.60;51.10;;;;;;463388;255;1268;-46
2021/05/18 01:08:33;;;;;;;;;;;18.60;51.00;;;;;;463258;255;2218;-46
2021/05/18 01:10:34;;;;;;;;;;;18.60;50.90;;;;;;463175;255;1510;-46
2021/05/18 01:12:35;;;;;;;;;;;18.60;50.90;;;;;;460788;257;1678;-46
2021/05/18 01:14:36;;;;;;;;;;;18.60;51.10;;;;;;463328;257;1278;-46
2021/05/18 01:16:38;;;;;;;;;;;18.60;51.00;;;;;;463335;256;1602;-46
2021/05/18 01:18:40;;;;;;;;;;;18.50;51.10;;;;;;463196;255;1074;-46
2021/05/18 01:20:40;;;;;;;;;;;18.50;51.20;;;;;;463147;256;2090;-46
2021/05/18 01:22:42;;;;;;;;;;;18.40;51.20;;;;;;460839;257;1182;-46
2021/05/18 01:24:43;;;;;;;;;;;18.40;51.20;;;;;;461962;257;1073;-46
2021/05/18 01:26:45;;;;;;;;;;;18.40;51.40;;;;;;460804;256;1272;-46
2021/05/18 01:28:45;;;;;;;;;;;18.40;51.40;;;;;;463502;257;2312;-46
2021/05/18 01:30:47;;;;;;;;;;;18.40;51.40;;;;;;460923;257;1266;-46
2021/05/18 01:32:48;;;;;;;;;;;18.40;51.40;;;;;;461803;257;1250;-46
2021/05/18 01:34:49;;;;;;;;;;;18.30;51.30;;;;;;462046;256;1074;-46
2021/05/18 01:36:51;;;;;;;;;;;18.40;51.40;;;;;;461728;256;1327;-45
2021/05/18 01:38:57;;;;;;;;;;;18.30;51.30;;;;;;468098;252;1068;-46
2021/05/18 01:43:14;;;;;;;;;;;18.30;51.40;;;;;;460069;259;1290;-46
2021/05/18 01:45:15;;;;;;;;;;;18.30;51.40;;;;;;460518;258;1117;-46
2021/05/18 01:47:17;;;;;;;;;;;18.30;51.40;;;;;;461899;257;1532;-46
2021/05/18 01:49:18;;;;;;;;;;;18.30;51.50;;;;;;460881;257;2141;-46
2021/05/18 01:51:19;;;;;;;;;;;18.20;51.40;;;;;;462054;256;1400;-46
2021/05/18 01:53:21;;;;;;;;;;;18.30;51.40;;;;;;461915;256;1207;-46
2021/05/18 01:55:26;;;;;;;;;;;18.40;51.20;;;;;;467820;253;1145;-46
2021/05/18 01:57:24;;;;;;;;;;;18.70;50.30;;;;;;461848;257;2304;-46
2021/05/18 01:59:24;;;;;;;;;;;19.20;49.20;;;;;;461916;257;2460;-46
2021/05/18 02:01:25;;;;;;;;;;;19.50;48.30;;;;;;460832;257;1172;-46
2021/05/18 02:03:27;;;;;;;;;;;19.70;47.70;;;;;;463120;257;1204;-46
2021/05/18 02:05:28;;;;;;;;;;;19.90;47.20;;;;;;460668;257;1191;-46
2021/05/18 02:07:29;;;;;;;;;;;20.00;46.80;;;;;;460452;259;1209;-46
2021/05/18 02:09:30;;;;;;;;;;;20.10;46.60;;;;;;463103;257;2156;-46
2021/05/18 02:11:32;;;;;;;;;;;20.20;46.40;;;;;;463076;256;1465;-46
2021/05/18 02:13:33;;;;;;;;;;;20.30;46.30;;;;;;460980;257;1099;-46
2021/05/18 02:15:41;;;;;;;;;;;20.30;46.10;;;;;;462153;257;1080;-46
2021/05/18 02:17:43;;;;;;;;;;;20.40;46.00;;;;;;460773;258;2343;-46
2021/05/18 02:19:48;;;;;;;;;;;20.40;45.80;;;;;;460432;259;2270;-46
2021/05/18 02:26:30;;;;;;;;;;;20.60;45.50;;;;;;458762;259;2046;-46
2021/05/18 02:28:31;;;;;;;;;;;20.60;45.40;;;;;;461018;258;2216;-46
2021/05/18 02:30:32;;;;;;;;;;;20.60;45.30;;;;;;460564;258;1139;-46
2021/05/18 02:32:34;;;;;;;;;;;20.70;45.20;;;;;;461800;257;1340;-46
2021/05/18 02:34:35;;;;;;;;;;;20.70;45.20;;;;;;460632;259;2098;-46
2021/05/18 02:36:36;;;;;;;;;;;20.70;45.10;;;;;;463077;257;1161;-46
2021/05/18 02:38:38;;;;;;;;;;;20.80;45.10;;;;;;463214;256;1066;-46
2021/05/18 02:40:41;;;;;;;;;;;20.80;45.00;;;;;;463280;255;1170;-46
2021/05/18 02:42:40;;;;;;;;;;;20.80;45.00;;;;;;460714;257;2357;-46
2021/05/18 02:44:44;;;;;;;;;;;20.90;44.90;;;;;;463419;257;1086;-46
2021/05/18 02:49:09;;;;;;;;;;;20.90;44.80;;;;;;463392;256;2183;-46
2021/05/18 02:51:08;;;;;;;;;;;20.90;44.80;;;;;;463055;257;2349;-46
2021/05/18 02:53:10;;;;;;;;;;;20.90;44.80;;;;;;463226;255;1171;-46
2021/05/18 02:55:15;;;;;;;;;;;20.90;44.70;;;;;;460966;257;1036;-46
2021/05/18 02:57:13;;;;;;;;;;;21.00;44.70;;;;;;460114;259;2248;-46
2021/05/18 02:59:16;;;;;;;;;;;21.00;44.60;;;;;;462211;257;1477;-46
2021/05/18 03:01:15;;;;;;;;;;;21.00;44.50;;;;;;461659;257;1348;-46
2021/05/18 03:03:16;;;;;;;;;;;21.00;44.50;;;;;;460619;256;1287;-46
2021/05/18 03:05:17;;;;;;;;;;;21.10;44.50;;;;;;462100;256;1121;-46
2021/05/18 03:07:19;;;;;;;;;;;21.10;44.40;;;;;;461847;256;1233;-46
2021/05/18 03:09:20;;;;;;;;;;;21.10;44.40;;;;;;460657;256;2142;-46
2021/05/18 03:11:21;;;;;;;;;;;21.10;44.40;;;;;;460791;258;1072;-46
2021/05/18 03:13:22;;;;;;;;;;;21.10;44.40;;;;;;461838;257;1083;-46
2021/05/18 03:15:24;;;;;;;;;;;21.20;44.40;;;;;;461922;256;1108;-46
2021/05/18 03:17:25;;;;;;;;;;;21.20;44.30;;;;;;461894;256;1078;-46
2021/05/18 03:19:26;;;;;;;;;;;21.20;44.30;;;;;;460765;256;1205;-46
2021/05/18 03:21:28;;;;;;;;;;;21.20;44.20;;;;;;463246;257;1250;-46
2021/05/18 03:23:29;;;;;;;;;;;21.20;44.20;;;;;;463531;255;1045;-46
2021/05/18 03:25:30;;;;;;;;;;;21.20;44.20;;;;;;463304;255;1133;-46
2021/05/18 03:27:31;;;;;;;;;;;21.20;44.20;;;;;;460672;257;1169;-46
2021/05/18 03:29:33;;;;;;;;;;;21.20;44.20;;;;;;463373;257;2218;-46
2021/05/18 03:36:12;;;;;;;;;;;21.30;44.00;;;;;;460525;258;1128;-46
2021/05/18 03:38:17;;;;;;;;;;;21.30;44.00;;;;;;460824;258;1240;-46
2021/05/18 03:40:16;;;;;;;;;;;21.40;44.00;;;;;;460369;259;2572;-46
2021/05/18 03:42:19;;;;;;;;;;;21.40;44.00;;;;;;461740;257;2477;-46
2021/05/18 03:44:22;;;;;;;;;;;21.40;44.00;;;;;;460577;256;2061;-46
2021/05/18 03:48:58;;;;;;;;;;;21.40;44.00;;;;;;460538;258;2204;-45
2021/05/18 03:53:42;;;;;;;;;;;21.40;43.90;;;;;;462347;254;1094;-46
2021/05/18 04:02:42;;;;;;;;;;;21.40;43.90;;;;;;461920;257;1086;-46
2021/05/18 04:04:47;;;;;;;;;;;21.50;43.80;;;;;;461898;257;1998;-46
2021/05/18 04:11:51;;;;;;;;;;;21.50;43.80;;;;;;461891;257;1093;-46
2021/05/18 04:18:27;;;;;;;;;;;21.50;43.80;;;;;;461795;257;1320;-46
2021/05/18 04:20:36;;;;;;;;;;;21.50;43.80;;;;;;461838;256;1305;-46
2021/05/18 04:22:49;;;;;;;;;;;21.50;43.80;;;;;;461464;258;2307;-46
2021/05/18 04:39:06;;;;;;;;;;;21.60;43.70;;;;;;455280;257;1200;-46
2021/05/18 04:48:32;;;;;;;;;;;21.60;43.70;;;;;;461789;257;1084;-46
2021/05/18 04:50:42;;;;;;;;;;;21.60;43.70;;;;;;461273;257;2169;-46
2021/05/18 04:52:33;;;;;;;;;;;21.60;43.70;;;;;;461479;256;2055;-46
2021/05/18 04:55:16;;;;;;;;;;;21.60;43.60;;;;;;461652;257;1780;-46
2021/05/18 04:59:19;;;;;;;;;;;21.60;43.60;;;;;;461962;254;1256;-46
2021/05/18 05:01:24;;;;;;;;;;;21.60;43.60;;;;;;461488;257;2276;-46
2021/05/18 05:08:01;;;;;;;;;;;21.70;43.60;;;;;;461774;256;1319;-46
2021/05/18 05:10:00;;;;;;;;;;;21.70;43.60;;;;;;461444;257;2236;-46
2021/05/18 05:12:37;;;;;;;;;;;21.70;43.60;;;;;;461683;255;1166;-46
2021/05/18 05:14:23;;;;;;;;;;;21.60;43.60;;;;;;460705;256;1370;-46
2021/05/18 05:16:25;;;;;;;;;;;21.70;43.50;;;;;;461547;257;2171;-46
2021/05/18 05:18:24;;;;;;;;;;;21.60;43.70;;;;;;461460;257;1427;-46
2021/05/18 05:20:25;;;;;;;;;;;21.10;44.70;;;;;;461601;255;1236;-46
2021/05/18 05:22:27;;;;;;;;;;;20.60;45.90;;;;;;461626;255;1201;-46
2021/05/18 05:24:28;;;;;;;;;;;20.20;46.90;;;;;;461630;255;1061;-46
2021/05/18 05:26:30;;;;;;;;;;;20.00;47.50;;;;;;461693;255;1481;-46
2021/05/18 05:28:31;;;;;;;;;;;19.70;48.10;;;;;;461573;256;1985;-46
2021/05/18 05:30:32;;;;;;;;;;;19.60;48.50;;;;;;461532;255;2200;-46
2021/05/18 05:32:34;;;;;;;;;;;19.50;48.80;;;;;;461621;255;1162;-46
2021/05/18 05:34:35;;;;;;;;;;;19.40;49.00;;;;;;461583;257;2253;-46
2021/05/18 05:36:37;;;;;;;;;;;19.40;49.10;;;;;;461498;256;1285;-46
2021/05/18 05:38:38;;;;;;;;;;;19.30;49.30;;;;;;461501;257;2316;-46
2021/05/18 05:40:38;;;;;;;;;;;19.20;49.40;;;;;;461503;256;2051;-46
2021/05/18 05:42:40;;;;;;;;;;;19.20;49.50;;;;;;461399;256;1124;-46
2021/05/18 05:44:41;;;;;;;;;;;19.10;49.60;;;;;;460023;258;1374;-46
2021/05/18 05:46:42;;;;;;;;;;;19.10;49.80;;;;;;462630;257;1228;-46
2021/05/18 05:48:43;;;;;;;;;;;19.10;49.90;;;;;;460188;257;1265;-46
2021/05/18 05:50:45;;;;;;;;;;;19.00;49.90;;;;;;460130;259;2204;-46
2021/05/18 05:52:46;;;;;;;;;;;19.00;49.90;;;;;;460072;258;1122;-46
2021/05/18 05:54:48;;;;;;;;;;;18.90;50.00;;;;;;460113;258;1102;-46
2021/05/18 05:56:49;;;;;;;;;;;18.90;50.10;;;;;;461288;256;1257;-46
2021/05/18 05:58:50;;;;;;;;;;;18.90;50.10;;;;;;460012;256;1095;-46
2021/05/18 06:00:52;;;;;;;;;;;18.90;50.10;;;;;;461409;255;1384;-46
2021/05/18 06:02:53;;;;;;;;;;;18.90;50.20;;;;;;460095;256;1222;-46
2021/05/18 06:04:54;;;;;;;;;;;18.80;50.20;;;;;;461351;257;1128;-46
2021/05/18 06:06:55;;;;;;;;;;;18.80;50.40;;;;;;461261;256;1181;-46
2021/05/18 06:08:57;;;;;;;;;;;18.70;50.50;;;;;;461097;256;1165;-46
2021/05/18 06:11:03;;;;;;;;;;;18.70;50.60;;;;;;461153;256;2219;-46
2021/05/18 06:18:08;;;;;;;;;;;18.70;50.70;;;;;;459956;258;1276;-46
2021/05/18 06:30:04;;;;;;;;;;;18.70;50.60;;;;;;459938;258;2149;-46
2021/05/18 06:34:27;;;;;;;;;;;18.60;50.60;;;;;;461307;257;1200;-46
2021/05/18 06:43:17;;;;;;;;;;;18.40;51.00;;;;;;461429;256;1211;-46
2021/05/18 06:47:35;;;;;;;;;;;18.40;51.00;;;;;;461447;255;1112;-46
2021/05/18 06:49:38;;;;;;;;;;;18.40;51.00;;;;;;461281;256;2207;-46
2021/05/18 06:51:37;;;;;;;;;;;18.40;51.10;;;;;;460910;257;2348;-45
2021/05/18 06:53:38;;;;;;;;;;;18.40;51.10;;;;;;461390;256;1479;-46
2021/05/18 06:55:40;;;;;;;;;;;18.40;51.20;;;;;;461251;256;1417;-46
2021/05/18 06:57:42;;;;;;;;;;;18.30;51.10;;;;;;461176;256;1223;-46
2021/05/18 07:02:21;;;;;;;;;;;18.30;51.20;;;;;;451337;262;1392;-45
2021/05/18 07:04:23;;;;;;;;;;;18.30;51.20;;;;;;451019;264;1186;-45
2021/05/18 07:06:37;;;;;;;;;;;18.30;51.20;;;;;;450829;264;1690;-46
2021/05/18 07:10:52;;;;;;;;;;;18.30;51.30;;;;;;450934;263;2225;-46
2021/05/18 07:12:53;;;;;;;;;;;18.30;51.30;;;;;;451090;263;1364;-46
2021/05/18 07:14:58;;;;;;;;;;;18.30;51.20;;;;;;451087;263;1349;-46
2021/05/18 07:16:56;;;;;;;;;;;18.60;50.50;;;;;;451069;263;2073;-46
2021/05/18 07:18:57;;;;;;;;;;;19.00;49.30;;;;;;451826;262;976;-46
2021/05/18 07:20:59;;;;;;;;;;;19.40;48.40;;;;;;451999;259;1338;-46
2021/05/18 07:23:05;;;;;;;;;;;19.60;47.70;;;;;;451740;263;1164;-46
2021/05/18 07:25:01;;;;;;;;;;;19.80;47.20;;;;;;450877;262;2389;-46
2021/05/18 07:27:03;;;;;;;;;;;20.00;46.90;;;;;;450660;264;1408;-46
2021/05/18 07:29:04;;;;;;;;;;;20.00;46.50;;;;;;450958;264;2256;-46
2021/05/18 07:31:06;;;;;;;;;;;20.20;46.40;;;;;;450793;264;2213;-46
2021/05/18 07:33:06;;;;;;;;;;;20.20;46.20;;;;;;452607;255;1272;-46
2021/05/18 07:35:08;;;;;;;;;;;20.30;46.00;;;;;;461078;255;1358;-46
2021/05/18 07:37:09;;;;;;;;;;;20.30;45.90;;;;;;461126;256;1258;-46
2021/05/18 07:39:10;;;;;;;;;;;20.40;45.70;;;;;;461274;256;1117;-46
2021/05/18 07:41:11;;;;;;;;;;;20.40;45.70;;;;;;461229;255;1272;-46
2021/05/18 07:43:17;;;;;;;;;;;20.40;45.60;;;;;;461292;256;1135;-46
2021/05/18 07:45:15;;;;;;;;;;;20.50;45.60;;;;;;460845;257;1872;-46
2021/05/18 07:47:17;;;;;;;;;;;20.50;45.50;;;;;;461036;255;1251;-46
2021/05/18 07:49:26;;;;;;;;;;;20.60;45.30;;;;;;461836;255;2055;-46
2021/05/18 07:51:34;;;;;;;;;;;20.60;45.20;;;;;;461108;256;2219;-46
2021/05/18 08:05:20;;;;;;;;;;;20.80;44.80;;;;;;461351;257;974;-46
2021/05/18 08:07:21;;;;;;;;;;;20.90;44.70;;;;;;461199;257;2139;-46
2021/05/18 08:09:23;;;;;;;;;;;20.90;44.70;;;;;;461382;256;1348;-46
2021/05/18 08:11:25;;;;;;;;;;;20.90;44.70;;;;;;461390;257;2211;-46
2021/05/18 08:13:26;;;;;;;;;;;20.90;44.60;;;;;;461667;256;2185;-46
2021/05/18 08:15:41;;;;;;;;;;;20.90;44.60;;;;;;461753;255;957;-46
2021/05/18 08:17:41;;;;;;;;;;;21.00;44.50;;;;;;460311;257;2386;-46
2021/05/18 08:20:02;;;;;;;;;;;21.00;44.40;;;;;;460903;255;1881;-46
2021/05/18 08:48:21;;;;;;;;;;;21.30;44.00;;;;;;460510;258;1385;-46
2021/05/18 09:02:24;;;;;;;;;;;21.30;43.90;;;;;;460079;258;1431;-46
2021/05/18 09:35:07;;;;;;;;;;;21.50;43.70;;;;;;459505;258;892;-46
2021/05/18 09:44:32;;;;;;;;;;;21.50;43.70;;;;;;459984;258;1260;-46
2021/05/18 09:49:10;;;;;;;;;;;21.60;43.70;;;;;;461703;257;1249;-46
2021/05/18 10:26:50;;;;;;;;;;;21.60;43.60;;;;;;459509;258;1146;-46
2021/05/18 10:34:32;;;;;;;;;;;21.70;43.70;;;;;;463077;255;1113;-47
2021/05/18 10:36:31;;;;;;;;;;;21.70;43.60;;;;;;462795;257;1401;-46
2021/05/18 10:38:33;;;;;;;;;;;21.70;43.60;;;;;;462649;256;2260;-46
2021/05/18 10:40:34;;;;;;;;;;;21.70;43.60;;;;;;462212;256;2064;-44
2021/05/18 10:42:34;;;;;;;;;;;21.70;43.60;;;;;;462592;253;2145;-46
2021/05/18 10:44:35;;;;;;;;;;;21.70;43.60;;;;;;463127;256;896;-46
2021/05/18 10:46:37;;;;;;;;;;;21.70;43.70;;;;;;463027;255;1247;-47
2021/05/18 10:48:38;;;;;;;;;;;21.70;43.60;;;;;;460177;257;897;-46
2021/05/18 10:50:39;;;;;;;;;;;21.50;43.80;;;;;;463135;257;2203;-46
2021/05/18 10:52:41;;;;;;;;;;;21.10;44.90;;;;;;463146;255;1063;-46
2021/05/18 10:54:42;;;;;;;;;;;20.60;46.10;;;;;;462910;256;1212;-46
2021/05/18 10:56:43;;;;;;;;;;;20.20;47.00;;;;;;463168;255;1384;-46
2021/05/18 10:58:44;;;;;;;;;;;19.90;47.80;;;;;;463184;256;991;-46
2021/05/18 11:00:46;;;;;;;;;;;19.80;48.20;;;;;;462234;255;1232;-46
2021/05/18 11:02:47;;;;;;;;;;;19.60;48.50;;;;;;462132;256;1280;-46
2021/05/18 11:04:48;;;;;;;;;;;19.50;48.80;;;;;;462308;256;1280;-45
2021/05/18 11:06:50;;;;;;;;;;;19.30;49.10;;;;;;462108;255;1311;-46
2021/05/18 11:08:51;;;;;;;;;;;19.30;49.50;;;;;;462289;255;1262;-46
2021/05/18 11:10:52;;;;;;;;;;;19.20;49.50;;;;;;459616;258;2156;-46
2021/05/18 11:12:54;;;;;;;;;;;19.20;49.60;;;;;;462204;257;1278;-46
2021/05/18 11:14:55;;;;;;;;;;;19.20;49.80;;;;;;462448;255;1257;-46
2021/05/18 11:16:57;;;;;;;;;;;19.00;50.00;;;;;;462679;255;1277;-46
2021/05/18 11:18:58;;;;;;;;;;;19.00;50.10;;;;;;463154;255;901;-46
2021/05/18 11:21:05;;;;;;;;;;;19.00;50.20;;;;;;462539;255;1098;-46
2021/05/18 11:23:20;;;;;;;;;;;19.00;50.30;;;;;;459661;258;2321;-46
2021/05/18 11:25:20;;;;;;;;;;;18.90;50.30;;;;;;460145;258;1603;-46
2021/05/18 11:27:21;;;;;;;;;;;18.90;50.40;;;;;;460343;258;1223;-46
2021/05/18 11:29:23;;;;;;;;;;;18.90;50.40;;;;;;460067;258;863;-46
2021/05/18 11:31:24;;;;;;;;;;;18.80;50.50;;;;;;461268;257;2231;-46
2021/05/18 11:33:25;;;;;;;;;;;18.80;50.60;;;;;;461757;256;1156;-46
2021/05/18 11:35:27;;;;;;;;;;;18.70;50.70;;;;;;461674;256;892;-45
2021/05/18 11:37:28;;;;;;;;;;;18.70;50.70;;;;;;461063;256;1059;-46
2021/05/18 11:39:29;;;;;;;;;;;18.70;50.70;;;;;;461726;256;1085;-46
2021/05/18 11:41:30;;;;;;;;;;;18.70;50.90;;;;;;461272;256;1241;-46
2021/05/18 11:43:35;;;;;;;;;;;18.60;50.90;;;;;;461467;256;908;-46
2021/05/18 11:45:35;;;;;;;;;;;18.60;51.00;;;;;;461383;256;2323;-46
2021/05/18 11:47:36;;;;;;;;;;;18.60;51.00;;;;;;461211;256;1350;-46
2021/05/18 11:49:38;;;;;;;;;;;18.60;51.00;;;;;;461830;256;1317;-46
2021/05/18 11:51:39;;;;;;;;;;;18.50;51.10;;;;;;461273;256;2200;-46
2021/05/18 11:53:40;;;;;;;;;;;18.50;51.20;;;;;;461827;256;968;-46
2021/05/18 11:55:41;;;;;;;;;;;18.50;51.10;;;;;;461164;256;1186;-46
2021/05/18 11:57:43;;;;;;;;;;;18.50;51.10;;;;;;460783;256;1173;-46
2021/05/18 11:59:44;;;;;;;;;;;18.50;51.20;;;;;;461419;256;869;-46
2021/05/18 12:01:45;;;;;;;;;;;18.50;51.20;;;;;;461480;256;1292;-46
2021/05/18 12:03:47;;;;;;;;;;;18.40;51.20;;;;;;461273;256;1507;-46
2021/05/18 12:05:48;;;;;;;;;;;18.40;51.30;;;;;;460883;256;1341;-46
2021/05/18 12:07:50;;;;;;;;;;;18.40;51.20;;;;;;460912;256;1231;-45
2021/05/18 12:09:51;;;;;;;;;;;18.40;51.20;;;;;;461019;256;1166;-46
2021/05/18 12:11:52;;;;;;;;;;;18.40;51.20;;;;;;461013;256;2216;-46
2021/05/18 12:13:53;;;;;;;;;;;18.40;51.20;;;;;;460977;256;1159;-46
2021/05/18 12:15:55;;;;;;;;;;;18.40;51.20;;;;;;460712;256;1336;-46
2021/05/18 12:17:56;;;;;;;;;;;18.40;51.30;;;;;;466676;254;1241;-46
2021/05/18 12:19:58;;;;;;;;;;;18.40;51.40;;;;;;460868;257;1291;-46
2021/05/18 12:21:59;;;;;;;;;;;18.40;51.40;;;;;;460543;256;1335;-46
2021/05/18 12:24:00;;;;;;;;;;;18.30;51.40;;;;;;459669;257;1331;-46
2021/05/18 12:26:01;;;;;;;;;;;18.30;51.50;;;;;;462169;257;1290;-46
2021/05/18 12:28:03;;;;;;;;;;;18.30;51.50;;;;;;463046;255;1067;-46
2021/05/18 12:30:04;;;;;;;;;;;18.20;51.50;;;;;;463029;255;895;-46
2021/05/18 12:32:05;;;;;;;;;;;18.30;51.50;;;;;;462872;255;2199;-46
2021/05/18 12:34:06;;;;;;;;;;;18.30;51.50;;;;;;460357;257;1363;-46
2021/05/18 12:36:08;;;;;;;;;;;18.30;51.50;;;;;;462992;257;1161;-46
2021/05/18 12:38:09;;;;;;;;;;;18.30;51.30;;;;;;462684;255;1345;-46
2021/05/18 12:40:12;;;;;;;;;;;18.70;50.40;;;;;;462324;256;2110;-46
2021/05/18 12:42:13;;;;;;;;;;;19.10;49.30;;;;;;461874;257;1393;-46
2021/05/18 12:44:13;;;;;;;;;;;19.50;48.40;;;;;;462011;257;2232;-46
2021/05/18 12:46:15;;;;;;;;;;;19.70;47.80;;;;;;462244;255;1331;-46
2021/05/18 12:48:16;;;;;;;;;;;19.90;47.30;;;;;;463015;256;2422;-46
2021/05/18 12:50:17;;;;;;;;;;;20.00;47.00;;;;;;460416;257;984;-46
2021/05/18 12:52:18;;;;;;;;;;;20.10;46.70;;;;;;460272;258;2208;-46
2021/05/18 12:54:19;;;;;;;;;;;20.20;46.40;;;;;;459627;258;1141;-46
2021/05/18 12:56:20;;;;;;;;;;;20.30;46.30;;;;;;461003;256;1370;-46
2021/05/18 12:58:22;;;;;;;;;;;20.40;46.20;;;;;;461826;256;989;-46
2021/05/18 13:00:23;;;;;;;;;;;20.40;46.00;;;;;;461076;256;1156;-46
2021/05/18 13:02:24;;;;;;;;;;;20.40;45.80;;;;;;460624;256;1363;-46
2021/05/18 13:04:25;;;;;;;;;;;20.50;45.80;;;;;;460735;256;1515;-46
2021/05/18 13:06:27;;;;;;;;;;;20.60;45.70;;;;;;460840;256;1390;-46
2021/05/18 13:08:28;;;;;;;;;;;20.60;45.50;;;;;;467022;251;1324;-46
2021/05/18 13:10:38;;;;;;;;;;;20.70;45.50;;;;;;459228;259;1281;-46
2021/05/18 13:12:31;;;;;;;;;;;20.70;45.40;;;;;;458600;258;2193;-46
2021/05/18 13:14:32;;;;;;;;;;;20.70;45.20;;;;;;459323;259;1241;-46
2021/05/18 13:16:33;;;;;;;;;;;20.80;45.20;;;;;;460346;257;1266;-46
2021/05/18 13:18:34;;;;;;;;;;;20.80;45.10;;;;;;460428;258;1118;-46
2021/05/18 13:20:36;;;;;;;;;;;20.80;45.00;;;;;;460403;258;1385;-46
2021/05/18 13:22:40;;;;;;;;;;;20.90;45.00;;;;;;460439;258;1263;-46
2021/05/18 13:26:58;;;;;;;;;;;20.90;44.90;;;;;;460323;258;1232;-46
2021/05/18 13:28:59;;;;;;;;;;;20.90;44.80;;;;;;460582;258;1184;-46
2021/05/18 13:31:00;;;;;;;;;;;21.00;44.80;;;;;;460408;258;1375;-46
2021/05/18 13:33:02;;;;;;;;;;;21.00;44.70;;;;;;460409;258;2136;-46
2021/05/18 13:35:05;;;;;;;;;;;21.00;44.70;;;;;;460511;258;1527;-46
2021/05/18 13:37:05;;;;;;;;;;;21.00;44.60;;;;;;460552;253;2060;-46
2021/05/18 13:39:06;;;;;;;;;;;21.00;44.60;;;;;;460340;258;1192;-46
2021/05/18 13:41:07;;;;;;;;;;;21.10;44.60;;;;;;460224;258;1343;-46
2021/05/18 13:43:08;;;;;;;;;;;21.10;44.60;;;;;;460241;258;1304;-46
2021/05/18 13:45:10;;;;;;;;;;;21.10;44.50;;;;;;460525;258;1258;-46
2021/05/18 13:47:11;;;;;;;;;;;21.10;44.50;;;;;;460561;253;1320;-46
2021/05/18 13:49:13;;;;;;;;;;;21.20;44.50;;;;;;460613;252;1190;-46
2021/05/18 13:51:15;;;;;;;;;;;21.20;44.40;;;;;;460632;258;1230;-46
2021/05/18 13:53:18;;;;;;;;;;;21.20;44.40;;;;;;460381;258;2222;-46
2021/05/18 13:55:17;;;;;;;;;;;21.20;44.30;;;;;;460321;258;2151;-46
2021/05/18 13:57:18;;;;;;;;;;;21.20;44.30;;;;;;460331;258;1283;-46
2021/05/18 13:59:19;;;;;;;;;;;21.20;44.30;;;;;;460472;258;1177;-46
2021/05/18 14:01:21;;;;;;;;;;;21.20;44.20;;;;;;460323;258;1229;-46
2021/05/18 14:03:22;;;;;;;;;;;21.30;44.30;;;;;;460353;258;1151;-46
2021/05/18 14:05:24;;;;;;;;;;;21.30;44.20;;;;;;460534;258;1334;-46
2021/05/18 14:07:43;;;;;;;;;;;21.30;44.20;;;;;;460307;258;1117;-46
2021/05/18 14:09:41;;;;;;;;;;;21.30;44.10;;;;;;461063;258;1926;-46
2021/05/18 14:11:43;;;;;;;;;;;21.30;44.10;;;;;;460562;258;2220;-46
2021/05/18 14:13:44;;;;;;;;;;;21.40;44.10;;;;;;460261;258;1146;-46
2021/05/18 14:15:45;;;;;;;;;;;21.40;44.10;;;;;;460384;258;1449;-46
2021/05/18 14:17:47;;;;;;;;;;;21.40;44.10;;;;;;460599;253;1885;-46
2021/05/18 14:19:48;;;;;;;;;;;21.40;44.10;;;;;;460566;258;1420;-46
2021/05/18 14:21:49;;;;;;;;;;;21.40;44.10;;;;;;460506;258;1296;-46
2021/05/18 14:23:57;;;;;;;;;;;21.40;44.10;;;;;;460536;258;1097;-46
2021/05/18 14:25:55;;;;;;;;;;;21.40;44.00;;;;;;460286;258;2553;-46
2021/05/18 14:27:57;;;;;;;;;;;21.40;44.00;;;;;;460506;258;1521;-46
2021/05/18 14:29:58;;;;;;;;;;;21.40;44.00;;;;;;460499;258;1118;-46
2021/05/18 14:31:59;;;;;;;;;;;21.50;44.00;;;;;;460423;258;2211;-46
2021/05/18 14:34:01;;;;;;;;;;;21.50;44.00;;;;;;460574;258;1251;-46
2021/05/18 14:36:02;;;;;;;;;;;21.50;44.00;;;;;;460386;259;1430;-46
2021/05/18 14:38:08;;;;;;;;;;;21.50;44.00;;;;;;460558;258;1120;-46
2021/05/18 14:40:09;;;;;;;;;;;21.50;44.00;;;;;;460430;258;2244;-46
2021/05/18 14:44:28;;;;;;;;;;;21.50;43.90;;;;;;460514;258;1103;-46
2021/05/18 14:46:31;;;;;;;;;;;21.50;43.90;;;;;;460400;258;2226;-46
2021/05/18 14:55:29;;;;;;;;;;;21.60;43.90;;;;;;460639;258;1366;-46
2021/05/18 14:57:30;;;;;;;;;;;21.50;43.80;;;;;;460555;258;2250;-46
2021/05/18 14:59:31;;;;;;;;;;;21.50;43.90;;;;;;460680;258;1105;-46
2021/05/18 15:01:32;;;;;;;;;;;21.60;43.90;;;;;;460508;258;1233;-46
2021/05/18 15:03:34;;;;;;;;;;;21.60;43.90;;;;;;460647;258;1141;-46
2021/05/18 15:05:35;;;;;;;;;;;21.60;43.90;;;;;;460549;258;1169;-46
2021/05/18 15:07:36;;;;;;;;;;;21.60;43.90;;;;;;460568;258;1266;-46
2021/05/18 15:09:39;;;;;;;;;;;21.60;43.90;;;;;;460603;258;1174;-46
2021/05/18 15:11:39;;;;;;;;;;;21.60;43.80;;;;;;460612;258;1597;-46
2021/05/18 15:13:41;;;;;;;;;;;21.60;43.80;;;;;;460620;258;2200;-46
2021/05/18 15:15:42;;;;;;;;;;;21.60;43.80;;;;;;460551;258;1088;-46
2021/05/18 15:17:44;;;;;;;;;;;21.60;43.80;;;;;;460374;258;1307;-46
2021/05/18 15:19:46;;;;;;;;;;;21.60;43.80;;;;;;460590;258;2415;-46
2021/05/18 15:21:46;;;;;;;;;;;21.70;43.90;;;;;;460590;258;1994;-46
2021/05/18 15:23:47;;;;;;;;;;;21.60;43.80;;;;;;460780;258;1163;-46
2021/05/18 15:25:48;;;;;;;;;;;21.60;43.80;;;;;;460491;258;1116;-46
2021/05/18 15:27:49;;;;;;;;;;;21.60;43.80;;;;;;460490;258;1195;-46
2021/05/18 15:29:51;;;;;;;;;;;21.70;43.80;;;;;;460457;258;1134;-46
2021/05/18 15:31:52;;;;;;;;;;;21.70;43.90;;;;;;460634;258;2212;-46
2021/05/18 15:33:53;;;;;;;;;;;21.70;43.80;;;;;;460526;258;1154;-46
2021/05/18 15:35:54;;;;;;;;;;;21.70;43.90;;;;;;460482;258;1227;-46
2021/05/18 15:37:56;;;;;;;;;;;21.70;43.80;;;;;;460558;258;1094;-46
2021/05/18 15:39:57;;;;;;;;;;;21.70;43.80;;;;;;460704;258;1140;-46
2021/05/18 15:41:58;;;;;;;;;;;21.70;43.80;;;;;;460715;258;1421;-46
2021/05/18 15:44:02;;;;;;;;;;;21.70;43.80;;;;;;460888;258;1215;-46
2021/05/18 15:46:01;;;;;;;;;;;21.70;43.80;;;;;;460659;258;1476;-46
2021/05/18 15:48:04;;;;;;;;;;;21.70;43.80;;;;;;460628;258;1148;-46
2021/05/18 15:50:04;;;;;;;;;;;21.70;43.80;;;;;;460765;258;2345;-46
2021/05/18 15:52:05;;;;;;;;;;;21.70;43.80;;;;;;460781;258;2200;-46
2021/05/18 15:54:07;;;;;;;;;;;21.70;43.70;;;;;;460810;258;1081;-46
2021/05/18 15:56:08;;;;;;;;;;;21.40;44.40;;;;;;460646;258;1434;-46
2021/05/18 15:58:09;;;;;;;;;;;20.90;45.60;;;;;;460748;258;1202;-46
2021/05/18 16:00:10;;;;;;;;;;;20.40;46.70;;;;;;460767;258;1223;-46
2021/05/18 16:02:12;;;;;;;;;;;20.10;47.50;;;;;;460781;258;1141;-46
2021/05/18 16:04:13;;;;;;;;;;;19.80;48.10;;;;;;460840;258;1237;-46